createdAt,value
2024-01-06T00:01:12.311Z,5.45
2024-01-06T00:03:39.052Z,3.92
2024-01-06T00:06:06.141Z,3.78
2024-01-06T00:08:32.664Z,4.30
2024-01-06T00:10:59.166Z,4.40
2024-01-06T00:13:25.716Z,4.82
2024-01-06T00:15:52.303Z,3.78
2024-01-06T00:18:20.091Z,3.90
2024-01-06T00:20:46.742Z,4.65
2024-01-06T00:23:13.198Z,4.30
2024-01-06T00:25:40.297Z,4.80
2024-01-06T00:28:06.779Z,3.95
2024-01-06T00:30:33.480Z,5.13
2024-01-06T00:33:00.027Z,4.53
2024-01-06T00:35:26.540Z,5.25
2024-01-06T00:37:53.434Z,4.85
2024-01-06T00:40:20.793Z,5.00
2024-01-06T00:42:47.360Z,4.80
2024-01-06T00:45:14.091Z,4.90
2024-01-06T00:47:40.692Z,5.13
2024-01-06T00:50:07.594Z,4.95
2024-01-06T00:52:34.060Z,4.40
2024-01-06T00:55:00.577Z,4.57
2024-01-06T00:57:27.094Z,3.95
2024-01-06T00:59:54.657Z,4.40
2024-01-06T01:02:21.138Z,5.55
2024-01-06T01:04:48.712Z,6.03
2024-01-06T01:07:15.300Z,5.50
2024-01-06T01:09:41.917Z,5.63
2024-01-06T01:12:08.480Z,5.28
2024-01-06T01:14:35.000Z,4.47
2024-01-06T01:17:01.480Z,4.45
2024-01-06T01:19:28.122Z,4.60
2024-01-06T01:21:56.747Z,4.38
2024-01-06T01:24:23.998Z,4.30
2024-01-06T01:26:51.095Z,5.00
2024-01-06T01:29:18.315Z,4.55
2024-01-06T01:31:44.859Z,4.43
2024-01-06T01:34:11.667Z,4.75
2024-01-06T01:36:38.312Z,4.68
2024-01-06T01:39:05.055Z,4.85
2024-01-06T01:41:32.525Z,4.47
2024-01-06T01:43:59.483Z,3.97
2024-01-06T01:46:30.427Z,4.30
2024-01-06T01:48:58.538Z,4.38
2024-01-06T01:51:30.610Z,4.60
2024-01-06T01:54:02.136Z,4.38
2024-01-06T01:56:30.285Z,4.47
2024-01-06T01:58:56.819Z,4.47
2024-01-06T02:01:23.457Z,4.40
2024-01-06T02:03:50.110Z,4.65
2024-01-06T02:06:16.764Z,4.22
2024-01-06T02:08:43.295Z,4.03
2024-01-06T02:11:09.813Z,4.13
2024-01-06T02:13:37.656Z,4.43
2024-01-06T02:16:05.856Z,4.55
2024-01-06T02:18:33.290Z,4.38
2024-01-06T02:21:02.353Z,4.38
2024-01-06T02:23:30.031Z,3.90
2024-01-06T02:25:57.712Z,4.22
2024-01-06T02:28:24.172Z,4.85
2024-01-06T02:30:51.397Z,4.45
2024-01-06T02:33:20.418Z,4.93
2024-01-06T02:35:47.742Z,4.22
2024-01-06T02:38:14.291Z,4.90
2024-01-06T02:40:40.840Z,3.85
2024-01-06T02:43:07.304Z,4.18
2024-01-06T02:45:33.943Z,4.53
2024-01-06T02:48:00.593Z,3.67
2024-01-06T02:50:27.130Z,4.57
2024-01-06T02:52:53.606Z,5.40
2024-01-06T02:55:20.151Z,5.45
2024-01-06T02:57:46.764Z,6.05
2024-01-06T03:00:14.093Z,5.20
2024-01-06T03:02:43.037Z,4.78
2024-01-06T03:05:11.446Z,4.95
2024-01-06T03:07:37.970Z,4.07
2024-01-06T03:10:04.767Z,5.72
2024-01-06T03:12:31.304Z,4.60
2024-01-06T03:14:57.821Z,5.30
2024-01-06T03:17:24.310Z,5.47
2024-01-06T03:19:51.081Z,5.97
2024-01-06T03:22:17.713Z,5.80
2024-01-06T03:24:44.300Z,4.97
2024-01-06T03:27:11.029Z,4.65
2024-01-06T03:29:37.820Z,5.40
2024-01-06T03:32:04.606Z,5.47
2024-01-06T03:34:31.231Z,5.30
2024-01-06T03:36:57.722Z,4.50
2024-01-06T03:39:24.227Z,4.80
2024-01-06T03:41:50.701Z,4.80
2024-01-06T03:44:17.226Z,4.80
2024-01-06T03:46:43.773Z,5.85
2024-01-06T03:49:10.356Z,4.97
2024-01-06T03:51:36.995Z,4.45
2024-01-06T03:54:03.680Z,4.25
2024-01-06T03:56:30.153Z,5.22
2024-01-06T03:58:56.636Z,4.95
2024-01-06T04:01:23.227Z,5.38
2024-01-06T04:03:49.883Z,5.28
2024-01-06T04:06:16.609Z,4.90
2024-01-06T04:08:43.574Z,5.05
2024-01-06T04:11:10.116Z,5.05
2024-01-06T04:13:36.621Z,4.30
2024-01-06T04:16:03.798Z,4.35
2024-01-06T04:18:30.438Z,4.32
2024-01-06T04:20:58.051Z,5.70
2024-01-06T04:23:26.338Z,4.80
2024-01-06T04:25:54.195Z,4.57
2024-01-06T04:28:20.867Z,4.30
2024-01-06T04:30:47.560Z,4.90
2024-01-06T04:33:14.369Z,4.95
2024-01-06T04:35:40.992Z,6.18
2024-01-06T04:38:07.451Z,5.63
2024-01-06T04:40:34.006Z,4.90
2024-01-06T04:43:00.487Z,5.13
2024-01-06T04:45:27.065Z,5.60
2024-01-06T04:47:53.933Z,4.78
2024-01-06T04:50:20.867Z,5.13
2024-01-06T04:52:47.380Z,5.20
2024-01-06T04:55:14.655Z,5.68
2024-01-06T04:57:41.174Z,6.47
2024-01-06T05:00:08.211Z,6.18
2024-01-06T05:02:35.316Z,7.43
2024-01-06T05:05:01.943Z,6.40
2024-01-06T05:07:28.481Z,6.57
2024-01-06T05:09:55.083Z,6.13
2024-01-06T05:12:21.650Z,5.78
2024-01-06T05:14:48.227Z,7.05
2024-01-06T05:17:14.775Z,6.88
2024-01-06T05:19:41.376Z,5.35
2024-01-06T05:22:08.085Z,6.72
2024-01-06T05:24:34.698Z,6.50
2024-01-06T05:27:01.225Z,6.75
2024-01-06T05:29:28.158Z,6.60
2024-01-06T05:31:55.792Z,5.43
2024-01-06T05:34:22.462Z,6.10
2024-01-06T05:36:50.067Z,5.68
2024-01-06T05:39:17.264Z,6.07
2024-01-06T05:41:43.799Z,6.20
2024-01-06T05:44:10.332Z,6.25
2024-01-06T05:46:36.912Z,5.47
2024-01-06T05:49:05.727Z,6.40
2024-01-06T05:51:32.478Z,7.13
2024-01-06T05:54:01.991Z,7.82
2024-01-06T05:56:28.903Z,6.63
2024-01-06T05:58:56.523Z,6.60
2024-01-06T06:01:23.996Z,6.40
2024-01-06T06:03:51.785Z,6.38
2024-01-06T06:06:18.768Z,5.80
2024-01-06T06:08:46.158Z,5.85
2024-01-06T06:11:12.679Z,6.85
2024-01-06T06:13:41.786Z,7.18
2024-01-06T06:16:10.272Z,7.63
2024-01-06T06:18:36.994Z,7.28
2024-01-06T06:21:05.049Z,6.07
2024-01-06T06:23:32.619Z,6.82
2024-01-06T06:26:00.438Z,6.43
2024-01-06T06:28:27.532Z,7.25
2024-01-06T06:30:54.314Z,5.57
2024-01-06T06:33:22.112Z,6.90
2024-01-06T06:35:48.630Z,6.60
2024-01-06T06:38:15.223Z,7.75
2024-01-06T06:40:41.701Z,7.75
2024-01-06T06:43:10.016Z,6.43
2024-01-06T06:45:36.552Z,8.73
2024-01-06T06:48:03.310Z,7.47
2024-01-06T06:50:30.131Z,6.47
2024-01-06T06:52:56.661Z,6.90
2024-01-06T06:55:23.125Z,6.55
2024-01-06T06:57:49.755Z,7.43
2024-01-06T07:00:17.299Z,8.18
2024-01-06T07:02:44.006Z,7.70
2024-01-06T07:05:10.748Z,8.88
2024-01-06T07:07:37.259Z,8.00
2024-01-06T07:10:06.760Z,8.52
2024-01-06T07:12:33.471Z,7.68
2024-01-06T07:15:00.066Z,9.90
2024-01-06T07:17:26.690Z,8.45
2024-01-06T07:19:53.973Z,7.32
2024-01-06T07:22:21.040Z,7.88
2024-01-06T07:24:47.649Z,9.05
2024-01-06T07:27:14.317Z,8.77
2024-01-06T07:29:40.896Z,9.23
2024-01-06T07:32:07.491Z,8.40
2024-01-06T07:34:34.541Z,8.82
2024-01-06T07:37:01.806Z,9.07
2024-01-06T07:39:28.443Z,7.60
2024-01-06T07:41:55.184Z,8.90
2024-01-06T07:44:25.724Z,8.73
2024-01-06T07:46:53.282Z,8.05
2024-01-06T07:49:20.329Z,6.47
2024-01-06T07:51:47.375Z,6.57
2024-01-06T07:54:13.966Z,7.10
2024-01-06T07:56:40.582Z,8.65
2024-01-06T07:59:07.963Z,8.32
2024-01-06T08:01:34.514Z,9.77
2024-01-06T08:04:01.341Z,9.60
2024-01-06T08:06:28.230Z,8.90
2024-01-06T08:08:55.877Z,9.73
2024-01-06T08:11:22.520Z,8.25
2024-01-06T08:13:49.091Z,8.27
2024-01-06T08:16:15.635Z,10.15
2024-01-06T08:18:42.373Z,10.57
2024-01-06T08:21:08.932Z,11.00
2024-01-06T08:23:35.766Z,9.70
2024-01-06T08:26:02.305Z,8.68
2024-01-06T08:28:28.889Z,9.82
2024-01-06T08:30:55.576Z,8.05
2024-01-06T08:33:22.293Z,9.52
2024-01-06T08:35:54.795Z,8.65
2024-01-06T08:38:23.593Z,7.47
2024-01-06T08:40:51.385Z,8.13
2024-01-06T08:43:19.276Z,11.43
2024-01-06T08:45:45.904Z,11.90
2024-01-06T08:48:14.790Z,13.55
2024-01-06T08:50:41.682Z,12.15
2024-01-06T08:53:08.226Z,10.07
2024-01-06T08:55:34.722Z,9.43
2024-01-06T08:58:01.278Z,8.82
2024-01-06T09:00:27.955Z,9.52
2024-01-06T09:02:54.687Z,10.38
2024-01-06T09:05:21.258Z,11.18
2024-01-06T09:07:54.563Z,9.98
2024-01-06T09:10:21.856Z,12.23
2024-01-06T09:12:49.065Z,11.13
2024-01-06T09:15:15.918Z,11.88
2024-01-06T09:17:42.831Z,11.93
2024-01-06T09:20:09.888Z,13.07
2024-01-06T09:22:36.581Z,10.77
2024-01-06T09:25:03.338Z,11.43
2024-01-06T09:27:29.845Z,13.27
2024-01-06T09:29:56.375Z,16.60
2024-01-06T09:32:24.298Z,14.75
2024-01-06T09:34:51.102Z,15.30
2024-01-06T09:37:17.781Z,15.18
2024-01-06T09:39:44.392Z,15.45
2024-01-06T09:42:12.714Z,13.13
2024-01-06T09:44:39.410Z,13.90
2024-01-06T09:47:07.154Z,14.13
2024-01-06T09:49:36.094Z,11.93
2024-01-06T09:52:07.613Z,13.20
2024-01-06T09:54:37.710Z,13.80
2024-01-06T09:57:07.211Z,10.65
2024-01-06T09:59:36.064Z,10.20
2024-01-06T10:02:04.906Z,9.43
2024-01-06T10:04:31.725Z,8.60
2024-01-06T10:06:58.302Z,9.35
2024-01-06T10:09:29.188Z,9.23
2024-01-06T10:11:57.710Z,8.13
2024-01-06T10:14:25.219Z,7.43
2024-01-06T10:16:53.664Z,7.68
2024-01-06T10:19:20.805Z,6.25
2024-01-06T10:21:47.650Z,7.30
2024-01-06T10:24:14.973Z,7.43
2024-01-06T10:26:41.598Z,7.40
2024-01-06T10:29:08.176Z,6.65
2024-01-06T10:31:35.942Z,5.75
2024-01-06T10:34:02.945Z,5.97
2024-01-06T10:36:29.974Z,6.32
2024-01-06T10:38:57.044Z,5.85
2024-01-06T10:41:25.118Z,6.32
2024-01-06T10:43:52.756Z,5.80
2024-01-06T10:46:24.001Z,5.80
2024-01-06T10:48:53.573Z,5.60
2024-01-06T10:51:20.659Z,5.80
2024-01-06T10:53:49.556Z,5.50
2024-01-06T10:56:17.019Z,5.20
2024-01-06T10:58:48.472Z,5.57
2024-01-06T11:01:19.388Z,4.95
2024-01-06T11:03:49.056Z,5.03
2024-01-06T11:06:16.052Z,5.60
2024-01-06T11:08:53.147Z,5.15
2024-01-06T11:11:20.839Z,4.75
2024-01-06T11:13:49.141Z,5.40
2024-01-06T11:16:38.499Z,5.05
2024-01-06T11:19:42.187Z,4.68
2024-01-06T11:22:21.939Z,4.78
2024-01-06T11:24:50.741Z,4.65
2024-01-06T11:27:24.056Z,5.13
2024-01-06T11:29:55.568Z,4.95
2024-01-06T11:32:36.236Z,4.28
2024-01-06T11:35:11.072Z,5.10
2024-01-06T11:37:40.558Z,5.35
2024-01-06T11:40:23.042Z,4.82
2024-01-06T11:43:02.035Z,4.82
2024-01-06T11:45:29.627Z,5.20
2024-01-06T11:48:00.265Z,5.80
2024-01-06T11:50:28.356Z,5.18
2024-01-06T11:52:55.929Z,4.28
2024-01-06T11:55:22.970Z,5.13
2024-01-06T11:57:51.040Z,4.88
2024-01-06T12:00:19.008Z,4.25
2024-01-06T12:02:46.288Z,4.18
2024-01-06T12:05:18.973Z,3.30
2024-01-06T12:08:05.795Z,4.72
2024-01-06T12:10:33.342Z,3.33
2024-01-06T12:13:03.098Z,3.58
2024-01-06T12:15:31.874Z,3.30
2024-01-06T12:17:58.934Z,3.33
2024-01-06T12:20:27.233Z,2.72
2024-01-06T12:22:54.536Z,2.90
2024-01-06T12:25:26.298Z,3.50
2024-01-06T12:30:25.056Z,3.33
2024-01-06T12:32:53.793Z,3.70
2024-01-06T12:35:23.954Z,3.83
2024-01-06T12:37:50.719Z,3.45
2024-01-06T12:40:18.721Z,3.42
2024-01-06T12:42:46.507Z,3.30
2024-01-06T12:45:14.326Z,2.75
2024-01-06T12:47:43.052Z,3.30
2024-01-06T12:50:10.049Z,3.05
2024-01-06T12:52:36.895Z,3.30
2024-01-06T12:55:04.510Z,2.63
2024-01-06T12:57:31.359Z,3.03
2024-01-06T12:59:57.989Z,3.03
2024-01-06T13:02:24.520Z,3.22
2024-01-06T13:04:51.099Z,2.65
2024-01-06T13:07:17.779Z,2.97
2024-01-06T13:09:45.657Z,2.45
2024-01-06T13:12:12.258Z,3.33
2024-01-06T13:14:39.407Z,2.50
2024-01-06T13:17:07.161Z,3.17
2024-01-06T13:19:35.195Z,2.13
2024-01-06T13:22:02.236Z,2.47
2024-01-06T13:24:28.948Z,2.22
2024-01-06T13:26:55.578Z,2.10
2024-01-06T13:29:22.093Z,2.50
2024-01-06T13:31:49.356Z,2.20
2024-01-06T13:34:16.076Z,2.35
2024-01-06T13:36:42.882Z,2.40
2024-01-06T13:39:09.437Z,2.88
2024-01-06T13:41:36.588Z,4.05
2024-01-06T13:44:03.321Z,2.65
2024-01-06T13:46:35.794Z,2.28
2024-01-06T13:49:03.454Z,2.00
2024-01-06T13:51:30.095Z,2.70
2024-01-06T13:53:56.799Z,1.90
2024-01-06T13:56:23.314Z,2.35
2024-01-06T13:58:50.391Z,2.15
2024-01-06T14:01:16.983Z,2.50
2024-01-06T14:03:43.743Z,2.17
2024-01-06T14:06:10.499Z,2.15
2024-01-06T14:08:37.129Z,2.17
2024-01-06T14:11:03.964Z,2.00
2024-01-06T14:13:32.939Z,2.67
2024-01-06T14:16:01.037Z,2.15
2024-01-06T14:18:28.837Z,1.90
2024-01-06T14:20:56.723Z,2.20
2024-01-06T14:23:23.591Z,1.85
2024-01-06T14:25:50.247Z,1.85
2024-01-06T14:28:16.761Z,1.60
2024-01-06T14:30:43.463Z,2.50
2024-01-06T14:33:11.075Z,2.00
2024-01-06T14:35:37.585Z,2.25
2024-01-06T14:38:04.242Z,1.67
2024-01-06T14:40:31.753Z,2.08
2024-01-06T14:42:58.765Z,3.28
2024-01-06T14:45:25.537Z,2.20
2024-01-06T14:47:52.361Z,2.05
2024-01-06T14:50:20.050Z,2.10
2024-01-06T14:52:46.821Z,1.67
2024-01-06T14:55:14.383Z,2.38
2024-01-06T14:57:41.053Z,1.67
2024-01-06T15:00:11.591Z,2.13
2024-01-06T15:02:39.570Z,1.42
2024-01-06T15:05:06.967Z,1.77
2024-01-06T15:07:34.601Z,1.65
2024-01-06T15:10:05.662Z,1.90
2024-01-06T15:12:32.429Z,1.67
2024-01-06T15:15:01.880Z,1.90
2024-01-06T15:17:28.763Z,1.65
2024-01-06T15:19:56.457Z,1.67
2024-01-06T15:22:23.903Z,1.80
2024-01-06T15:24:57.492Z,1.75
2024-01-06T15:27:25.206Z,1.80
2024-01-06T15:29:51.800Z,1.90
2024-01-06T15:32:18.343Z,1.75
2024-01-06T15:34:45.263Z,1.50
2024-01-06T15:37:11.837Z,2.28
2024-01-06T15:39:38.434Z,1.75
2024-01-06T15:42:05.159Z,1.50
2024-01-06T15:44:34.385Z,1.80
2024-01-06T15:47:00.998Z,2.17
2024-01-06T15:49:29.253Z,2.90
2024-01-06T15:51:58.404Z,2.03
2024-01-06T15:54:25.149Z,2.28
2024-01-06T15:56:51.932Z,1.33
2024-01-06T15:59:18.458Z,1.90
2024-01-06T16:01:45.268Z,1.40
2024-01-06T16:04:12.170Z,1.80
2024-01-06T16:06:38.943Z,1.90
2024-01-06T16:09:06.964Z,2.30
2024-01-06T16:11:34.530Z,1.70
2024-01-06T16:14:01.058Z,2.13
2024-01-06T16:16:30.489Z,1.90
2024-01-06T16:18:57.339Z,6.60
2024-01-06T16:21:25.280Z,3.50
2024-01-06T16:23:53.431Z,1.90
2024-01-06T16:26:21.224Z,2.70
2024-01-06T16:28:47.729Z,2.10
2024-01-06T16:31:14.374Z,1.67
2024-01-06T16:33:41.147Z,2.03
2024-01-06T16:36:11.336Z,1.75
2024-01-06T16:38:37.899Z,1.90
2024-01-06T16:41:04.974Z,1.88
2024-01-06T16:43:33.586Z,1.50
2024-01-06T16:46:00.184Z,2.17
2024-01-06T16:48:27.070Z,1.88
2024-01-06T16:50:53.775Z,2.45
2024-01-06T16:53:20.304Z,1.98
2024-01-06T16:55:46.785Z,3.58
2024-01-06T16:58:13.409Z,5.20
2024-01-06T17:00:40.175Z,3.35
2024-01-06T17:03:06.765Z,4.68
2024-01-06T17:05:34.559Z,2.10
2024-01-06T17:08:01.099Z,1.95
2024-01-06T17:10:27.666Z,4.05
2024-01-06T17:12:55.527Z,2.42
2024-01-06T17:15:25.777Z,2.88
2024-01-06T17:17:52.397Z,2.70
2024-01-06T17:20:18.992Z,2.15
2024-01-06T17:22:46.001Z,2.38
2024-01-06T17:25:16.114Z,2.00
2024-01-06T17:27:46.295Z,2.10
2024-01-06T17:30:13.701Z,2.42
2024-01-06T17:32:42.274Z,5.55
2024-01-06T17:35:09.277Z,4.63
2024-01-06T17:37:35.942Z,4.18
2024-01-06T17:40:03.018Z,3.15
2024-01-06T17:42:29.649Z,3.45
2024-01-06T17:44:56.497Z,3.33
2024-01-06T17:47:23.037Z,2.97
2024-01-06T17:49:50.110Z,4.40
2024-01-06T17:52:16.845Z,4.18
2024-01-06T17:54:43.790Z,3.63
2024-01-06T17:57:17.231Z,3.40
2024-01-06T17:59:44.296Z,3.47
2024-01-06T18:02:10.793Z,4.10
2024-01-06T18:04:37.503Z,3.13
2024-01-06T18:07:04.381Z,3.08
2024-01-06T18:09:31.038Z,4.35
2024-01-06T18:11:57.572Z,5.75
2024-01-06T18:14:24.371Z,5.97
2024-01-06T18:16:50.961Z,4.90
2024-01-06T18:19:17.624Z,8.90
2024-01-06T18:21:44.797Z,5.60
2024-01-06T18:24:11.368Z,4.80
2024-01-06T18:26:37.963Z,5.78
2024-01-06T18:29:04.466Z,7.13
2024-01-06T18:31:31.178Z,6.05
2024-01-06T18:33:57.964Z,5.10
2024-01-06T18:36:25.000Z,4.80
2024-01-06T18:38:52.319Z,5.55
2024-01-06T18:41:18.787Z,4.65
2024-01-06T18:43:46.072Z,5.72
2024-01-06T18:46:12.738Z,5.85
2024-01-06T18:48:39.532Z,5.05
2024-01-06T18:51:06.215Z,5.38
2024-01-06T18:53:32.745Z,4.30
2024-01-06T18:55:59.339Z,4.25
2024-01-06T18:58:31.913Z,6.13
2024-01-06T19:00:58.571Z,4.50
2024-01-06T19:03:25.183Z,5.15
2024-01-06T19:05:51.752Z,5.07
2024-01-06T19:08:19.354Z,9.00
2024-01-06T19:10:45.973Z,6.22
2024-01-06T19:13:12.538Z,6.07
2024-01-06T19:15:42.985Z,5.68
2024-01-06T19:18:09.893Z,5.38
2024-01-06T19:20:36.524Z,5.03
2024-01-06T19:23:09.330Z,4.60
2024-01-06T19:25:37.287Z,5.43
2024-01-06T19:28:04.354Z,4.93
2024-01-06T19:30:31.076Z,4.15
2024-01-06T19:32:58.735Z,5.22
2024-01-06T19:35:25.268Z,6.05
2024-01-06T19:37:51.814Z,4.40
2024-01-06T19:40:19.606Z,4.50
2024-01-06T19:42:49.847Z,3.67
2024-01-06T19:45:16.509Z,4.40
2024-01-06T19:47:43.078Z,4.43
2024-01-06T19:50:10.092Z,5.00
2024-01-06T19:52:37.362Z,5.60
2024-01-06T19:55:05.181Z,7.38
2024-01-06T19:57:31.821Z,8.10
2024-01-06T19:59:59.514Z,7.43
2024-01-06T20:02:26.373Z,5.90
2024-01-06T20:04:52.943Z,6.85
2024-01-06T20:07:20.604Z,5.32
2024-01-06T20:09:48.256Z,6.05
2024-01-06T20:12:14.951Z,5.82
2024-01-06T20:14:42.667Z,5.32
2024-01-06T20:17:11.319Z,4.95
2024-01-06T20:19:38.083Z,5.40
2024-01-06T20:22:07.135Z,5.45
2024-01-06T20:24:34.137Z,5.55
2024-01-06T20:27:00.964Z,4.80
2024-01-06T20:29:27.476Z,5.32
2024-01-06T20:31:54.132Z,5.15
2024-01-06T20:34:20.977Z,4.10
2024-01-06T20:36:48.949Z,6.32
2024-01-06T20:39:15.455Z,5.10
2024-01-06T20:41:41.947Z,6.80
2024-01-06T20:44:10.296Z,6.38
2024-01-06T20:46:36.992Z,4.38
2024-01-06T20:49:04.348Z,3.78
2024-01-06T20:51:30.954Z,4.32
2024-01-06T20:53:57.533Z,5.50
2024-01-06T20:56:24.007Z,4.80
2024-01-06T20:58:50.558Z,5.03
2024-01-06T21:01:17.114Z,6.00
2024-01-06T21:03:44.249Z,4.90
2024-01-06T21:06:11.302Z,5.85
2024-01-06T21:08:38.884Z,4.97
2024-01-06T21:11:07.433Z,5.82
2024-01-06T21:13:33.954Z,4.68
2024-01-06T21:16:03.932Z,4.68
2024-01-06T21:18:30.834Z,5.63
2024-01-06T21:20:57.454Z,3.85
2024-01-06T21:23:35.550Z,3.80
2024-01-06T21:26:10.721Z,4.10
2024-01-06T21:28:38.927Z,3.67
2024-01-06T21:31:07.543Z,4.20
2024-01-06T21:33:34.278Z,3.42
2024-01-06T21:36:01.850Z,4.07
2024-01-06T21:38:28.316Z,4.70
2024-01-06T21:40:54.843Z,4.35
2024-01-06T21:43:21.380Z,4.63
2024-01-06T21:45:48.015Z,4.15
2024-01-06T21:48:14.888Z,4.68
2024-01-06T21:50:41.925Z,4.53
2024-01-06T21:53:10.119Z,4.68
2024-01-06T21:55:37.846Z,5.35
2024-01-06T21:58:04.720Z,4.60
2024-01-06T22:00:31.376Z,4.10
2024-01-06T22:02:58.541Z,4.05
2024-01-06T22:05:25.222Z,3.88
2024-01-06T22:07:51.741Z,4.38
2024-01-06T22:10:18.427Z,3.85
2024-01-06T22:12:45.001Z,4.90
2024-01-06T22:15:11.499Z,5.20
2024-01-06T22:17:38.093Z,4.35
2024-01-06T22:20:05.377Z,4.10
2024-01-06T22:22:31.939Z,4.50
2024-01-06T22:24:58.765Z,4.45
2024-01-06T22:27:26.450Z,3.97
2024-01-06T22:29:53.025Z,4.75
2024-01-06T22:32:19.494Z,4.18
2024-01-06T22:34:46.188Z,4.15
2024-01-06T22:37:12.967Z,4.82
2024-01-06T22:39:42.974Z,5.03
2024-01-06T22:42:09.547Z,4.38
2024-01-06T22:44:36.214Z,5.20
2024-01-06T22:47:02.958Z,4.40
2024-01-06T22:49:29.889Z,5.05
2024-01-06T22:51:56.752Z,4.65
2024-01-06T22:54:24.427Z,5.18
2024-01-06T22:56:50.957Z,4.90
2024-01-06T22:59:17.582Z,7.57
2024-01-06T23:01:44.199Z,7.00
2024-01-06T23:04:10.892Z,6.28
2024-01-06T23:06:38.022Z,5.63
2024-01-06T23:09:05.680Z,6.32
2024-01-06T23:11:32.564Z,5.50
2024-01-06T23:13:59.251Z,5.47
2024-01-06T23:16:25.897Z,5.10
2024-01-06T23:18:54.196Z,5.70
2024-01-06T23:21:21.481Z,5.03
2024-01-06T23:23:49.166Z,5.32
2024-01-06T23:26:16.143Z,4.53
2024-01-06T23:28:42.679Z,4.85
2024-01-06T23:31:09.489Z,4.70
2024-01-06T23:33:36.227Z,4.60
2024-01-06T23:36:04.084Z,4.78
2024-01-06T23:38:30.657Z,5.18
2024-01-06T23:40:57.134Z,5.43
2024-01-06T23:43:23.636Z,5.05
2024-01-06T23:45:50.238Z,4.93
2024-01-06T23:48:16.802Z,4.82
2024-01-06T23:50:43.469Z,5.22
2024-01-06T23:53:11.371Z,5.70
2024-01-06T23:55:37.915Z,6.13
2024-01-06T23:58:04.849Z,7.03
